createdAt,value
2018-03-29T00:00:37.599Z,75.24
2018-03-29T00:01:37.604Z,75.15
2018-03-29T00:02:37.604Z,74.67
2018-03-29T00:03:37.598Z,74.58
2018-03-29T00:04:37.630Z,75.24
2018-03-29T00:05:37.574Z,75.05
2018-03-29T00:06:37.600Z,74.87
2018-03-29T00:07:37.563Z,74.48
2018-03-29T00:08:37.561Z,74.39
2018-03-29T00:09:37.553Z,75.21
2018-03-29T00:10:37.550Z,75.30
2018-03-29T00:11:37.556Z,75.34
2018-03-29T00:12:37.561Z,75.02
2018-03-29T00:13:37.526Z,75.30
2018-03-29T00:14:37.527Z,75.11
2018-03-29T00:15:37.524Z,74.58
2018-03-29T00:16:37.525Z,75.11
2018-03-29T00:17:37.504Z,75.21
2018-03-29T00:18:37.507Z,74.92
2018-03-29T00:19:37.514Z,74.82
2018-03-29T00:20:37.502Z,74.54
2018-03-29T00:21:37.521Z,74.73
2018-03-29T00:23:58.539Z,74.16
2018-03-29T00:25:07.162Z,73.88
2018-03-29T00:27:00.994Z,74.20
2018-03-29T00:27:51.929Z,73.40
2018-03-29T00:29:00.610Z,73.69
2018-03-29T00:30:53.196Z,73.30
2018-03-29T00:33:06.360Z,72.55
2018-03-29T00:34:06.332Z,72.26
2018-03-29T00:35:06.330Z,71.97
2018-03-29T00:36:06.319Z,71.59
2018-03-29T00:37:06.335Z,71.78
2018-03-29T00:38:06.314Z,71.63
2018-03-29T00:39:06.302Z,71.02
2018-03-29T00:40:06.311Z,71.59
2018-03-29T00:41:06.316Z,71.41
2018-03-29T00:42:06.288Z,71.31
2018-03-29T00:43:06.307Z,71.41
2018-03-29T00:44:06.286Z,71.02
2018-03-29T00:45:06.323Z,71.50
2018-03-29T00:46:06.267Z,71.31
2018-03-29T00:47:06.258Z,70.74
2018-03-29T00:48:06.276Z,70.07
2018-03-29T00:49:06.256Z,69.98
2018-03-29T00:50:06.265Z,69.31
2018-03-29T00:51:06.247Z,69.41
2018-03-29T00:52:06.229Z,68.84
2018-03-29T00:53:06.225Z,68.27
2018-03-29T00:54:06.222Z,68.65
2018-03-29T00:55:06.213Z,67.69
2018-03-29T00:56:06.204Z,67.41
2018-03-29T00:57:06.204Z,67.60
2018-03-29T00:58:06.227Z,67.32
2018-03-29T00:59:06.187Z,66.74
2018-03-29T01:00:06.187Z,66.74
2018-03-29T01:01:06.186Z,67.22
2018-03-29T01:02:06.172Z,66.55
2018-03-29T01:03:06.174Z,66.84
2018-03-29T01:04:06.164Z,67.79
2018-03-29T01:05:06.183Z,67.50
2018-03-29T01:06:06.149Z,66.65
2018-03-29T01:07:06.144Z,66.94
2018-03-29T01:08:06.139Z,66.17
2018-03-29T01:09:06.146Z,66.08
2018-03-29T01:10:06.132Z,66.55
2018-03-29T01:11:06.119Z,66.27
2018-03-29T01:12:06.120Z,66.94
2018-03-29T01:13:06.159Z,67.13
2018-03-29T01:14:06.102Z,66.84
2018-03-29T01:15:06.140Z,66.74
2018-03-29T01:16:06.103Z,67.13
2018-03-29T01:17:06.155Z,67.60
2018-03-29T01:18:06.078Z,67.50
2018-03-29T01:19:06.077Z,67.60
2018-03-29T01:20:06.066Z,67.98
2018-03-29T01:21:06.081Z,67.98
2018-03-29T01:22:06.053Z,67.98
2018-03-29T01:23:06.046Z,68.07
2018-03-29T01:24:06.046Z,67.88
2018-03-29T01:25:06.035Z,68.46
2018-03-29T01:26:06.033Z,68.93
2018-03-29T01:27:06.024Z,68.84
2018-03-29T01:28:06.026Z,69.37
2018-03-29T01:29:06.020Z,69.31
2018-03-29T01:30:06.033Z,69.41
2018-03-29T01:31:05.997Z,69.41
2018-03-29T01:32:06.039Z,69.50
2018-03-29T01:33:05.981Z,69.12
2018-03-29T01:34:05.982Z,69.21
2018-03-29T01:35:05.983Z,69.12
2018-03-29T01:36:05.985Z,69.60
2018-03-29T01:37:05.974Z,69.50
2018-03-29T01:38:05.973Z,69.66
2018-03-29T01:39:05.964Z,69.69
2018-03-29T01:40:05.943Z,70.07
2018-03-29T01:41:05.932Z,69.79
2018-03-29T01:42:05.935Z,69.60
2018-03-29T01:43:05.927Z,69.60
2018-03-29T01:44:05.935Z,69.41
2018-03-29T01:45:05.934Z,69.37
2018-03-29T01:46:05.944Z,69.85
2018-03-29T01:47:05.916Z,69.41
2018-03-29T01:48:05.891Z,69.50
2018-03-29T01:49:05.890Z,69.60
2018-03-29T01:50:05.911Z,69.46
2018-03-29T01:51:05.902Z,69.66
2018-03-29T01:52:05.884Z,69.69
2018-03-29T01:53:05.905Z,69.12
2018-03-29T01:54:05.856Z,68.84
2018-03-29T01:55:05.848Z,68.93
2018-03-29T01:56:05.852Z,69.37
2018-03-29T01:57:06.040Z,69.79
2018-03-29T01:58:06.032Z,69.46
2018-03-29T01:59:05.825Z,69.66
2018-03-29T02:00:05.823Z,69.79
2018-03-29T02:01:05.830Z,70.17
2018-03-29T02:02:05.818Z,70.13
2018-03-29T02:03:05.800Z,70.26
2018-03-29T02:04:05.793Z,69.56
2018-03-29T02:05:05.788Z,69.66
2018-03-29T02:06:05.789Z,69.56
2018-03-29T02:07:05.779Z,70.23
2018-03-29T02:08:05.798Z,69.75
2018-03-29T02:09:05.809Z,69.66
2018-03-29T02:10:05.769Z,69.66
2018-03-29T02:11:05.795Z,69.75
2018-03-29T02:12:05.745Z,69.69
2018-03-29T02:13:05.738Z,69.46
2018-03-29T02:14:05.737Z,69.85
2018-03-29T02:15:05.733Z,69.69
2018-03-29T02:16:05.718Z,70.26
2018-03-29T02:17:05.713Z,69.50
2018-03-29T02:18:05.716Z,69.60
2018-03-29T02:19:05.737Z,69.60
2018-03-29T02:20:05.696Z,69.66
2018-03-29T02:21:05.690Z,70.04
2018-03-29T02:22:05.688Z,70.13
2018-03-29T02:23:05.688Z,69.85
2018-03-29T02:24:05.684Z,70.70
2018-03-29T02:25:05.677Z,70.42
2018-03-29T02:26:05.670Z,70.32
2018-03-29T02:27:05.673Z,69.88
2018-03-29T02:28:05.645Z,70.70
2018-03-29T02:29:05.644Z,70.13
2018-03-29T02:30:05.639Z,70.23
2018-03-29T02:31:05.632Z,70.61
2018-03-29T02:32:05.631Z,70.70
2018-03-29T02:33:05.625Z,71.08
2018-03-29T02:34:05.621Z,70.70
2018-03-29T02:35:05.628Z,70.61
2018-03-29T02:36:05.609Z,70.70
2018-03-29T02:37:05.596Z,70.64
2018-03-29T02:38:05.604Z,70.70
2018-03-29T02:39:05.589Z,70.51
2018-03-29T02:40:05.586Z,70.51
2018-03-29T02:41:05.576Z,69.75
2018-03-29T02:42:05.580Z,70.32
2018-03-29T02:43:05.568Z,70.42
2018-03-29T02:44:05.580Z,70.51
2018-03-29T02:45:05.640Z,70.32
2018-03-29T02:46:05.615Z,70.04
2018-03-29T02:47:05.536Z,70.51
2018-03-29T02:48:05.529Z,70.70
2018-03-29T02:49:05.531Z,71.27
2018-03-29T02:50:05.528Z,71.37
2018-03-29T02:51:05.520Z,71.84
2018-03-29T02:52:05.513Z,72.03
2018-03-29T02:53:05.500Z,70.99
2018-03-29T02:54:05.505Z,71.27
2018-03-29T02:55:05.488Z,70.89
2018-03-29T02:56:05.493Z,71.18
2018-03-29T02:57:05.485Z,71.46
2018-03-29T02:58:05.482Z,71.18
2018-03-29T02:59:05.491Z,71.18
2018-03-29T03:00:05.466Z,71.37
2018-03-29T03:01:05.462Z,71.18
2018-03-29T03:02:05.453Z,71.56
2018-03-29T03:03:05.474Z,71.84
2018-03-29T03:04:05.436Z,71.56
2018-03-29T03:05:05.457Z,71.84
2018-03-29T03:06:05.426Z,72.03
2018-03-29T03:24:54.662Z,74.22
2018-03-29T03:25:54.679Z,73.93
2018-03-29T03:26:54.630Z,74.31
2018-03-29T03:27:54.642Z,74.41
2018-03-29T03:28:54.618Z,74.69
2018-03-29T03:29:54.595Z,74.03
2018-03-29T03:30:54.608Z,73.18
2018-03-29T03:31:54.583Z,73.27
2018-03-29T03:32:54.588Z,73.36
2018-03-29T03:33:54.557Z,73.65
2018-03-29T03:34:54.559Z,73.18
2018-03-29T03:35:54.563Z,73.36
2018-03-29T03:36:54.557Z,73.14
2018-03-29T03:37:54.546Z,73.18
2018-03-29T03:38:54.536Z,72.89
2018-03-29T03:39:54.525Z,72.22
2018-03-29T03:40:54.516Z,72.38
2018-03-29T03:41:54.501Z,72.32
2018-03-29T03:42:54.552Z,72.56
2018-03-29T03:43:54.493Z,72.28
2018-03-29T03:44:54.488Z,71.71
2018-03-29T03:45:54.471Z,71.23
2018-03-29T03:46:54.467Z,70.57
2018-03-29T03:47:54.463Z,70.57
2018-03-29T03:48:54.469Z,70.86
2018-03-29T03:49:54.480Z,70.76
2018-03-29T03:50:54.452Z,70.76
2018-03-29T03:51:54.443Z,70.86
2018-03-29T03:52:54.428Z,71.23
2018-03-29T03:53:54.418Z,71.33
2018-03-29T03:54:54.408Z,71.90
2018-03-29T03:55:54.417Z,71.62
2018-03-29T03:56:54.416Z,71.62
2018-03-29T03:57:54.417Z,72.00
2018-03-29T03:58:54.416Z,71.52
2018-03-29T03:59:54.421Z,72.00
2018-03-29T04:00:54.378Z,71.04
2018-03-29T04:01:54.388Z,70.95
2018-03-29T04:02:54.369Z,70.86
2018-03-29T04:03:54.362Z,70.86
2018-03-29T04:04:54.358Z,70.86
2018-03-29T04:05:54.356Z,71.23
2018-03-29T04:06:54.404Z,70.76
2018-03-29T04:07:54.333Z,71.23
2018-03-29T04:08:54.324Z,70.95
2018-03-29T04:09:54.348Z,70.67
2018-03-29T04:10:54.343Z,71.33
2018-03-29T04:11:54.326Z,70.86
2018-03-29T04:12:54.324Z,70.38
2018-03-29T04:13:54.319Z,70.38
2018-03-29T04:14:54.299Z,70.76
2018-03-29T04:15:54.293Z,70.57
2018-03-29T04:16:54.282Z,70.57
2018-03-29T04:17:54.268Z,70.19
2018-03-29T04:18:54.262Z,70.10
2018-03-29T04:19:54.394Z,69.91
2018-03-29T04:20:54.255Z,69.91
2018-03-29T04:21:54.266Z,69.62
2018-03-29T04:22:54.275Z,69.81
2018-03-29T04:23:54.240Z,70.00
2018-03-29T04:24:54.229Z,70.00
2018-03-29T04:25:54.256Z,70.67
2018-03-29T04:26:54.221Z,70.57
2018-03-29T04:27:54.208Z,70.86
2018-03-29T04:28:54.220Z,70.38
2018-03-29T04:29:54.218Z,70.57
2018-03-29T04:30:54.192Z,70.57
2018-03-29T04:31:54.180Z,70.76
2018-03-29T04:32:54.174Z,70.76
2018-03-29T04:33:54.192Z,70.10
2018-03-29T04:34:54.161Z,70.29
2018-03-29T04:35:54.163Z,69.71
2018-03-29T04:36:54.175Z,69.71
2018-03-29T04:37:54.149Z,70.48
2018-03-29T04:38:54.137Z,70.38
2018-03-29T04:39:54.127Z,70.23
2018-03-29T04:40:54.142Z,70.10
2018-03-29T04:41:54.117Z,70.10
2018-03-29T04:42:54.125Z,71.14
2018-03-29T04:43:54.112Z,69.91
2018-03-29T04:44:54.126Z,70.19
2018-03-29T04:45:54.117Z,69.91
2018-03-29T04:46:54.120Z,70.57
2018-03-29T04:47:54.083Z,70.00
2018-03-29T04:48:54.073Z,70.29
2018-03-29T04:51:16.392Z,70.48
2018-03-29T04:52:16.108Z,70.10
2018-03-29T04:53:16.105Z,70.10
2018-03-29T04:54:16.118Z,70.29
2018-03-29T04:55:16.287Z,69.91
2018-03-29T04:56:16.118Z,69.91
2018-03-29T04:57:16.111Z,70.10
2018-03-29T04:58:16.076Z,70.00
2018-03-29T04:59:16.051Z,70.57
2018-03-29T05:00:16.042Z,70.86
2018-03-29T05:01:16.039Z,70.38
2018-03-29T05:02:16.038Z,70.29
2018-03-29T05:03:16.069Z,69.91
2018-03-29T05:04:16.018Z,70.48
2018-03-29T05:05:16.084Z,70.95
2018-03-29T05:06:16.063Z,70.76
2018-03-29T05:07:16.000Z,70.57
2018-03-29T05:08:16.000Z,70.38
2018-03-29T05:09:16.000Z,70.86
2018-03-29T05:10:15.991Z,70.29
2018-03-29T05:11:15.979Z,70.86
2018-03-29T05:12:15.978Z,71.62
2018-03-29T05:13:15.972Z,71.04
2018-03-29T05:14:15.958Z,70.76
2018-03-29T05:15:15.952Z,70.76
2018-03-29T05:16:15.981Z,70.67
2018-03-29T05:17:15.941Z,70.76
2018-03-29T05:18:15.935Z,71.52
2018-03-29T05:19:15.945Z,70.67
2018-03-29T05:20:15.953Z,70.57
2018-03-29T05:21:15.938Z,70.95
2018-03-29T05:22:15.912Z,70.95
2018-03-29T05:23:15.929Z,71.14
2018-03-29T05:24:15.909Z,71.14
2018-03-29T05:25:15.890Z,71.62
2018-03-29T05:26:15.918Z,71.23
2018-03-29T05:27:15.918Z,71.43
2018-03-29T05:28:15.897Z,71.90
2018-03-29T05:29:15.890Z,71.52
2018-03-29T05:30:15.858Z,71.33
2018-03-29T05:31:15.891Z,71.14
2018-03-29T05:32:15.873Z,71.90
2018-03-29T05:33:15.865Z,71.23
2018-03-29T05:34:15.921Z,70.95
2018-03-29T05:35:15.865Z,70.76
2018-03-29T05:36:15.880Z,71.14
2018-03-29T05:37:15.867Z,71.23
2018-03-29T05:38:15.876Z,71.43
2018-03-29T05:39:15.808Z,71.33
2018-03-29T05:40:15.839Z,70.95
2018-03-29T05:41:15.798Z,71.33
2018-03-29T05:42:15.785Z,71.33
2018-03-29T05:43:15.801Z,70.76
2018-03-29T05:44:15.783Z,70.95
2018-03-29T05:45:15.812Z,70.38
2018-03-29T05:46:15.757Z,70.19
2018-03-29T05:47:15.759Z,70.48
2018-03-29T05:48:15.754Z,70.86
2018-03-29T05:49:15.747Z,70.57
2018-03-29T05:50:15.759Z,70.67
2018-03-29T05:51:15.726Z,70.86
2018-03-29T05:52:15.731Z,70.38
2018-03-29T05:53:15.715Z,70.38
2018-03-29T05:54:15.713Z,70.76
2018-03-29T05:55:15.707Z,70.57
2018-03-29T05:56:15.703Z,70.57
2018-03-29T05:57:15.702Z,70.76
2018-03-29T05:58:15.696Z,70.57
2018-03-29T05:59:15.712Z,71.14
2018-03-29T06:00:15.670Z,71.14
2018-03-29T06:01:15.689Z,70.48
2018-03-29T06:02:15.673Z,70.76
2018-03-29T06:03:15.731Z,70.51
2018-03-29T06:04:15.660Z,70.00
2018-03-29T06:05:15.759Z,70.04
2018-03-29T06:06:15.671Z,69.56
2018-03-29T06:07:15.628Z,69.66
2018-03-29T06:08:15.657Z,69.85
2018-03-29T06:09:15.679Z,69.94
2018-03-29T06:10:15.613Z,70.13
2018-03-29T06:11:15.633Z,69.56
2018-03-29T06:12:15.615Z,69.37
2018-03-29T06:13:15.599Z,69.09
2018-03-29T06:14:15.587Z,69.09
2018-03-29T06:15:15.589Z,69.56
2018-03-29T06:16:24.246Z,69.37
2018-03-29T06:18:10.022Z,69.09
2018-03-29T06:19:09.987Z,69.27
2018-03-29T06:20:10.011Z,69.18
2018-03-29T06:21:10.012Z,68.80
2018-03-29T06:22:09.961Z,69.46
2018-03-29T06:23:09.999Z,69.27
2018-03-29T06:24:09.960Z,68.80
2018-03-29T06:25:09.953Z,68.90
2018-03-29T06:26:09.974Z,69.18
2018-03-29T06:27:09.935Z,68.99
2018-03-29T06:28:09.940Z,68.42
2018-03-29T06:29:09.951Z,68.90
2018-03-29T06:30:09.917Z,68.99
2018-03-29T06:31:09.914Z,69.27
2018-03-29T06:32:09.942Z,69.18
2018-03-29T06:33:09.923Z,68.71
2018-03-29T06:34:09.927Z,68.71
2018-03-29T06:35:09.886Z,68.80
2018-03-29T06:36:09.896Z,68.71
2018-03-29T06:37:09.881Z,68.52
2018-03-29T06:38:09.872Z,68.46
2018-03-29T06:39:09.865Z,68.61
2018-03-29T06:40:09.856Z,68.33
2018-03-29T06:41:09.861Z,68.99
2018-03-29T06:42:09.858Z,69.09
2018-03-29T06:43:09.852Z,68.90
2018-03-29T06:44:09.873Z,68.90
2018-03-29T06:45:09.852Z,69.37
2018-03-29T06:46:09.863Z,68.90
2018-03-29T06:47:09.850Z,69.27
2018-03-29T06:48:09.861Z,69.18
2018-03-29T06:49:09.826Z,68.93
2018-03-29T06:50:09.851Z,68.42
2018-03-29T06:51:09.802Z,68.61
2018-03-29T06:52:09.801Z,68.90
2018-03-29T06:53:09.796Z,68.46
2018-03-29T06:54:09.782Z,68.33
2018-03-29T06:55:09.804Z,68.13
2018-03-29T06:56:09.768Z,68.33
2018-03-29T06:57:09.801Z,68.13
2018-03-29T06:58:09.759Z,68.42
2018-03-29T06:59:09.791Z,68.42
2018-03-29T07:00:09.748Z,68.33
2018-03-29T07:01:09.769Z,68.04
2018-03-29T07:02:09.731Z,67.19
2018-03-29T07:03:09.755Z,67.66
2018-03-29T07:04:09.727Z,67.85
2018-03-29T07:05:09.734Z,67.50
2018-03-29T07:06:09.711Z,67.41
2018-03-29T07:07:09.707Z,67.03
2018-03-29T07:08:09.693Z,66.94
2018-03-29T07:09:09.723Z,66.94
2018-03-29T07:10:09.709Z,66.74
2018-03-29T07:11:09.676Z,66.74
2018-03-29T07:12:09.672Z,66.65
2018-03-29T07:13:09.674Z,66.84
2018-03-29T07:14:09.675Z,66.36
2018-03-29T07:15:09.675Z,66.36
2018-03-29T07:16:09.651Z,66.84
2018-03-29T07:17:09.668Z,66.84
2018-03-29T07:18:09.635Z,66.27
2018-03-29T07:19:09.629Z,66.08
2018-03-29T07:20:09.631Z,66.46
2018-03-29T07:21:09.627Z,65.70
2018-03-29T07:22:09.628Z,65.60
2018-03-29T07:23:09.674Z,65.41
2018-03-29T07:24:09.607Z,65.32
2018-03-29T07:25:09.605Z,65.60
2018-03-29T07:26:09.605Z,65.51
2018-03-29T07:27:09.588Z,65.70
2018-03-29T07:28:09.590Z,65.99
2018-03-29T07:29:09.578Z,66.08
2018-03-29T07:30:09.567Z,65.99
2018-03-29T07:31:09.565Z,65.99
2018-03-29T07:32:09.561Z,66.36
2018-03-29T07:33:09.549Z,66.55
2018-03-29T07:34:09.548Z,65.60
2018-03-29T07:35:09.542Z,65.32
2018-03-29T07:36:09.537Z,65.60
2018-03-29T07:37:09.541Z,65.70
2018-03-29T07:38:09.518Z,64.94
2018-03-29T07:39:09.556Z,65.32
2018-03-29T07:40:09.506Z,64.94
2018-03-29T07:41:09.506Z,65.03
2018-03-29T07:42:09.498Z,65.13
2018-03-29T07:43:09.512Z,65.70
2018-03-29T07:44:09.487Z,66.08
2018-03-29T07:45:09.506Z,65.51
2018-03-29T07:46:09.478Z,65.51
2018-03-29T07:47:09.522Z,65.51
2018-03-29T07:48:09.474Z,65.70
2018-03-29T07:49:09.472Z,65.32
2018-03-29T07:50:09.463Z,65.60
2018-03-29T07:51:09.439Z,65.73
2018-03-29T07:52:09.446Z,65.54
2018-03-29T07:53:09.473Z,65.06
2018-03-29T07:54:09.426Z,65.32
2018-03-29T07:55:09.428Z,65.32
2018-03-29T07:56:09.416Z,64.97
2018-03-29T07:57:09.409Z,65.45
2018-03-29T07:58:09.416Z,64.87
2018-03-29T07:59:09.401Z,64.11
2018-03-29T08:00:09.415Z,64.02
2018-03-29T08:01:09.416Z,64.02
2018-03-29T08:02:09.388Z,64.02
2018-03-29T08:03:09.373Z,64.11
2018-03-29T08:04:09.368Z,63.64
2018-03-29T08:05:09.412Z,63.45
2018-03-29T08:06:09.364Z,63.54
2018-03-29T08:07:09.395Z,63.26
2018-03-29T08:08:09.343Z,63.17
2018-03-29T08:09:09.340Z,62.97
2018-03-29T08:10:09.333Z,63.20
2018-03-29T08:11:09.338Z,63.35
2018-03-29T08:12:09.319Z,63.54
2018-03-29T08:13:09.319Z,63.07
2018-03-29T08:14:09.330Z,63.73
2018-03-29T08:15:09.325Z,63.54
2018-03-29T08:16:09.297Z,63.73
2018-03-29T08:17:09.307Z,63.35
2018-03-29T08:18:09.336Z,63.45
2018-03-29T08:19:09.288Z,63.35
2018-03-29T08:20:09.412Z,63.35
2018-03-29T08:21:09.301Z,63.39
2018-03-29T08:22:09.355Z,62.78
2018-03-29T08:23:09.262Z,62.88
2018-03-29T08:24:09.257Z,63.39
2018-03-29T08:25:09.292Z,62.53
2018-03-29T08:26:09.339Z,62.53
2018-03-29T08:27:09.272Z,61.10
2018-03-29T08:28:09.248Z,60.91
2018-03-29T08:29:09.256Z,61.07
2018-03-29T08:30:09.223Z,60.82
2018-03-29T08:31:09.295Z,61.10
2018-03-29T08:32:09.234Z,61.86
2018-03-29T08:33:09.242Z,61.96
2018-03-29T08:34:09.203Z,61.96
2018-03-29T08:35:09.200Z,61.96
2018-03-29T08:36:09.203Z,61.67
2018-03-29T08:37:09.270Z,61.58
2018-03-29T08:38:09.195Z,61.38
2018-03-29T08:39:09.179Z,60.91
2018-03-29T08:40:09.187Z,60.44
2018-03-29T08:41:09.219Z,60.24
2018-03-29T08:42:09.165Z,59.89
2018-03-29T08:43:09.229Z,60.66
2018-03-29T08:44:09.194Z,59.99
2018-03-29T08:45:09.180Z,59.61
2018-03-29T08:46:09.155Z,59.23
2018-03-29T08:47:09.147Z,58.47
2018-03-29T08:48:09.201Z,58.47
2018-03-29T08:49:09.147Z,58.18
2018-03-29T08:50:09.165Z,58.28
2018-03-29T08:51:09.168Z,58.18
2018-03-29T08:52:09.152Z,58.75
2018-03-29T08:53:09.112Z,59.80
2018-03-29T08:54:09.163Z,58.81
2018-03-29T08:55:09.099Z,57.99
2018-03-29T08:56:09.104Z,58.08
2018-03-29T08:57:09.132Z,57.80
2018-03-29T08:58:09.112Z,57.51
2018-03-29T08:59:09.148Z,55.80
2018-03-29T09:00:09.122Z,55.22
2018-03-29T09:01:09.102Z,54.72
2018-03-29T09:02:09.096Z,54.75
2018-03-29T09:03:09.082Z,54.82
2018-03-29T09:04:09.077Z,55.01
2018-03-29T09:05:09.068Z,56.15
2018-03-29T09:06:09.054Z,55.61
2018-03-29T09:07:09.056Z,55.42
2018-03-29T09:08:09.046Z,54.85
2018-03-29T09:09:09.057Z,54.37
2018-03-29T09:10:09.037Z,54.11
2018-03-29T09:11:09.084Z,53.44
2018-03-29T09:12:09.035Z,52.78
2018-03-29T09:13:09.067Z,52.71
2018-03-29T09:14:09.021Z,53.19
2018-03-29T09:15:09.030Z,52.23
2018-03-29T09:16:09.010Z,51.35
2018-03-29T09:17:09.018Z,51.64
2018-03-29T09:18:09.009Z,51.95
2018-03-29T09:19:09.014Z,51.76
2018-03-29T09:20:08.991Z,50.99
2018-03-29T09:21:08.983Z,51.09
2018-03-29T09:22:08.979Z,50.71
2018-03-29T09:23:08.979Z,50.61
2018-03-29T09:24:08.969Z,50.80
2018-03-29T09:25:08.982Z,50.99
2018-03-29T09:26:08.974Z,51.66
2018-03-29T09:27:08.986Z,51.09
2018-03-29T09:28:08.994Z,51.56
2018-03-29T09:29:08.983Z,51.64
2018-03-29T09:30:08.967Z,51.95
2018-03-29T09:31:08.992Z,52.14
2018-03-29T09:32:08.940Z,51.66
2018-03-29T09:33:08.940Z,51.95
2018-03-29T09:34:08.934Z,51.85
2018-03-29T09:35:08.980Z,52.68
2018-03-29T09:36:08.930Z,53.44
2018-03-29T09:37:08.954Z,53.35
2018-03-29T09:38:08.934Z,53.35
2018-03-29T09:39:08.928Z,52.68
2018-03-29T09:40:08.908Z,52.59
2018-03-29T09:41:08.924Z,52.87
2018-03-29T09:42:08.898Z,52.59
2018-03-29T09:43:08.906Z,52.78
2018-03-29T09:44:08.892Z,52.40
2018-03-29T09:45:08.888Z,52.20
2018-03-29T09:46:08.895Z,52.20
2018-03-29T09:47:08.881Z,52.01
2018-03-29T09:48:08.924Z,52.59
2018-03-29T09:49:08.880Z,52.90
2018-03-29T09:50:08.868Z,52.14
2018-03-29T09:51:08.865Z,51.85
2018-03-29T09:52:08.879Z,51.37
2018-03-29T09:53:08.916Z,51.56
2018-03-29T09:54:08.858Z,51.09
2018-03-29T09:55:08.869Z,51.37
2018-03-29T09:56:08.863Z,51.85
2018-03-29T09:57:08.858Z,51.54
2018-03-29T09:58:08.870Z,52.20
2018-03-29T09:59:08.870Z,52.87
2018-03-29T10:00:08.835Z,53.06
2018-03-29T10:01:08.842Z,53.16
2018-03-29T10:02:08.822Z,52.87
2018-03-29T10:03:08.820Z,53.25
2018-03-29T10:04:08.845Z,53.54
2018-03-29T10:05:08.828Z,53.06
2018-03-29T10:06:08.842Z,52.68
2018-03-29T10:07:08.811Z,52.61
2018-03-29T10:08:08.812Z,52.49
2018-03-29T10:09:08.840Z,51.76
2018-03-29T10:10:08.811Z,52.23
2018-03-29T10:11:08.823Z,52.40
2018-03-29T10:12:08.788Z,51.92
2018-03-29T10:13:08.781Z,51.92
2018-03-29T10:14:08.868Z,51.45
2018-03-29T10:15:08.799Z,51.37
2018-03-29T10:16:08.767Z,50.61
2018-03-29T10:17:08.814Z,50.71
2018-03-29T10:18:08.761Z,50.40
2018-03-29T10:19:08.787Z,51.18
2018-03-29T10:20:08.749Z,50.30
2018-03-29T10:21:08.825Z,50.80
2018-03-29T10:22:08.746Z,50.32
2018-03-29T10:23:08.759Z,50.71
2018-03-29T10:24:08.760Z,51.25
2018-03-29T10:25:08.764Z,51.66
2018-03-29T10:26:08.782Z,51.66
2018-03-29T10:27:08.727Z,51.95
2018-03-29T10:28:08.781Z,51.09
2018-03-29T10:29:08.724Z,51.02
2018-03-29T10:30:08.822Z,50.83
2018-03-29T10:31:08.709Z,50.35
2018-03-29T10:32:08.717Z,51.09
2018-03-29T10:33:08.720Z,50.80
2018-03-29T10:34:08.709Z,51.47
2018-03-29T10:35:08.741Z,51.28
2018-03-29T10:36:08.718Z,51.59
2018-03-29T10:37:08.686Z,51.78
2018-03-29T10:38:08.680Z,51.56
2018-03-29T10:39:08.826Z,51.97
2018-03-29T10:40:08.685Z,52.07
2018-03-29T10:41:08.717Z,52.07
2018-03-29T10:42:08.686Z,51.50
2018-03-29T10:43:08.671Z,51.21
2018-03-29T10:44:08.703Z,51.97
2018-03-29T10:45:08.693Z,52.36
2018-03-29T10:46:08.653Z,52.67
2018-03-29T10:47:08.698Z,51.97
2018-03-29T10:48:08.674Z,50.73
2018-03-29T10:49:08.662Z,49.97
2018-03-29T10:50:08.655Z,48.92
2018-03-29T10:51:08.749Z,49.21
2018-03-29T10:52:08.669Z,48.44
2018-03-29T10:53:08.627Z,48.44
2018-03-29T10:54:08.668Z,48.73
2018-03-29T10:55:08.634Z,48.08
2018-03-29T10:56:08.620Z,48.07
2018-03-29T10:57:08.619Z,47.49
2018-03-29T10:58:08.630Z,47.23
2018-03-29T10:59:08.610Z,47.02
2018-03-29T11:00:08.649Z,47.30
2018-03-29T11:01:08.601Z,46.92
2018-03-29T11:02:08.610Z,47.80
2018-03-29T11:03:08.593Z,47.32
2018-03-29T11:04:08.600Z,47.13
2018-03-29T11:05:08.606Z,47.32
2018-03-29T11:06:08.584Z,47.02
2018-03-29T11:07:08.637Z,47.68
2018-03-29T11:08:08.629Z,48.54
2018-03-29T11:09:08.577Z,48.44
2018-03-29T11:10:08.616Z,48.63
2018-03-29T11:11:08.591Z,48.44
2018-03-29T11:12:08.573Z,48.54
2018-03-29T11:13:08.610Z,49.02
2018-03-29T11:14:08.645Z,48.92
2018-03-29T11:15:08.568Z,48.47
2018-03-29T11:16:08.568Z,48.18
2018-03-29T11:17:08.554Z,47.61
2018-03-29T11:18:08.556Z,48.18
2018-03-29T11:19:08.543Z,47.42
2018-03-29T11:20:08.537Z,47.30
2018-03-29T11:21:08.541Z,47.78
2018-03-29T11:22:08.575Z,47.30
2018-03-29T11:23:08.567Z,47.58
2018-03-29T11:24:08.579Z,47.97
2018-03-29T11:25:08.531Z,48.28
2018-03-29T11:26:08.545Z,47.30
2018-03-29T11:27:08.538Z,47.97
2018-03-29T11:28:08.523Z,48.83
2018-03-29T11:29:08.519Z,49.11
2018-03-29T11:30:08.513Z,48.92
2018-03-29T11:31:08.506Z,48.57
2018-03-29T11:32:08.505Z,48.92
2018-03-29T11:33:08.567Z,48.54
2018-03-29T11:34:08.494Z,48.73
2018-03-29T11:35:08.582Z,49.21
2018-03-29T11:36:08.489Z,49.30
2018-03-29T11:37:08.519Z,49.21
2018-03-29T11:38:08.484Z,49.30
2018-03-29T11:39:08.508Z,49.21
2018-03-29T11:40:08.476Z,49.59
2018-03-29T11:41:08.471Z,49.21
2018-03-29T11:42:08.538Z,49.78
2018-03-29T11:43:08.469Z,49.87
2018-03-29T11:44:08.464Z,49.78
2018-03-29T11:45:08.474Z,49.59
2018-03-29T11:46:08.474Z,49.87
2018-03-29T11:47:08.462Z,50.16
2018-03-29T11:48:08.450Z,49.11
2018-03-29T11:49:08.477Z,49.30
2018-03-29T11:50:08.453Z,48.54
2018-03-29T11:51:08.486Z,48.83
2018-03-29T11:52:08.470Z,49.11
2018-03-29T11:53:08.469Z,49.23
2018-03-29T11:54:08.427Z,48.37
2018-03-29T11:55:08.426Z,49.02
2018-03-29T11:56:08.447Z,48.92
2018-03-29T11:57:08.445Z,48.92
2018-03-29T11:58:08.461Z,49.21
2018-03-29T11:59:08.443Z,49.21
2018-03-29T12:00:08.450Z,49.11
2018-03-29T12:01:08.416Z,48.18
2018-03-29T12:02:08.406Z,48.18
2018-03-29T12:03:08.408Z,48.94
2018-03-29T12:04:08.434Z,48.47
2018-03-29T12:05:08.426Z,48.25
2018-03-29T12:06:08.409Z,48.25
2018-03-29T12:07:08.415Z,48.25
2018-03-29T12:08:08.415Z,49.02
2018-03-29T12:09:08.405Z,48.44
2018-03-29T12:10:08.381Z,48.57
2018-03-29T12:11:08.382Z,48.47
2018-03-29T12:12:08.381Z,48.18
2018-03-29T12:13:08.412Z,48.08
2018-03-29T12:14:08.371Z,48.37
2018-03-29T12:15:08.456Z,48.57
2018-03-29T12:16:08.360Z,48.47
2018-03-29T12:17:08.362Z,48.47
2018-03-29T12:18:08.386Z,48.66
2018-03-29T12:19:08.384Z,48.35
2018-03-29T12:20:08.400Z,48.94
2018-03-29T12:21:08.394Z,49.02
2018-03-29T12:22:08.389Z,49.30
2018-03-29T12:23:08.364Z,49.71
2018-03-29T12:24:08.350Z,48.92
2018-03-29T12:25:08.360Z,49.11
2018-03-29T12:26:08.339Z,49.30
2018-03-29T12:27:08.377Z,48.92
2018-03-29T12:28:08.342Z,49.02
2018-03-29T12:29:08.356Z,48.47
2018-03-29T12:30:08.356Z,47.03
2018-03-29T12:31:08.353Z,46.56
2018-03-29T12:32:08.331Z,46.47
2018-03-29T12:33:08.335Z,46.37
2018-03-29T12:34:08.346Z,46.66
2018-03-29T12:35:08.309Z,46.47
2018-03-29T12:36:08.337Z,47.13
2018-03-29T12:37:08.313Z,47.32
2018-03-29T12:38:08.369Z,47.80
2018-03-29T12:39:08.340Z,48.18
2018-03-29T12:40:08.320Z,48.28
2018-03-29T12:41:08.342Z,47.80
2018-03-29T12:42:08.328Z,47.42
2018-03-29T12:43:08.286Z,47.80
2018-03-29T12:44:08.314Z,47.99
2018-03-29T12:45:08.283Z,48.37
2018-03-29T12:46:08.290Z,47.97
2018-03-29T12:47:08.282Z,47.80
2018-03-29T12:48:08.383Z,47.78
2018-03-29T12:49:08.294Z,47.99
2018-03-29T12:50:08.284Z,47.80
2018-03-29T12:51:08.314Z,47.23
2018-03-29T12:52:08.331Z,47.42
2018-03-29T12:53:08.324Z,47.61
2018-03-29T12:54:08.269Z,47.23
2018-03-29T12:55:08.247Z,47.52
2018-03-29T12:56:08.292Z,47.42
2018-03-29T12:57:08.241Z,47.61
2018-03-29T12:58:08.242Z,47.42
2018-03-29T12:59:08.239Z,47.06
2018-03-29T13:00:08.263Z,47.16
2018-03-29T13:01:08.258Z,47.32
2018-03-29T13:02:08.226Z,46.56
2018-03-29T13:03:08.308Z,46.75
2018-03-29T13:04:08.266Z,47.61
2018-03-29T13:05:08.226Z,47.32
2018-03-29T13:06:08.232Z,47.03
2018-03-29T13:07:08.230Z,47.13
2018-03-29T13:08:08.212Z,47.13
2018-03-29T13:09:08.222Z,46.94
2018-03-29T13:10:08.243Z,47.52
2018-03-29T13:11:08.254Z,47.80
2018-03-29T13:12:16.832Z,47.80
2018-03-29T13:14:01.668Z,48.47
2018-03-29T13:15:01.631Z,48.18
2018-03-29T13:16:01.602Z,48.02
2018-03-29T13:17:01.603Z,48.37
2018-03-29T13:18:01.618Z,48.49